sensor_id;sensor_type;location;lat;lon;timestamp;pressure;altitude;pressure_sealevel;temperature;humidity
22753;BME280;11543;43.144;24.684;2023-05-11T00:01:23;99097.22;;;12.64;72.38
22753;BME280;11543;43.144;24.684;2023-05-11T00:03:49;99089.97;;;12.56;72.57
22753;BME280;11543;43.144;24.684;2023-05-11T00:06:15;99096.53;;;12.54;72.52
22753;BME280;11543;43.144;24.684;2023-05-11T00:08:40;99087.56;;;12.45;72.71
22753;BME280;11543;43.144;24.684;2023-05-11T00:11:08;99105.91;;;12.50;72.77
22753;BME280;11543;43.144;24.684;2023-05-11T00:13:34;99102.03;;;12.44;72.91
22753;BME280;11543;43.144;24.684;2023-05-11T00:16:00;99110.25;;;12.42;72.94
22753;BME280;11543;43.144;24.684;2023-05-11T00:18:25;99085.81;;;12.28;73.53
22753;BME280;11543;43.144;24.684;2023-05-11T00:20:51;99108.41;;;12.43;73.95
22753;BME280;11543;43.144;24.684;2023-05-11T00:23:16;99089.91;;;12.40;74.11
22753;BME280;11543;43.144;24.684;2023-05-11T00:25:42;99085.56;;;12.47;74.02
22753;BME280;11543;43.144;24.684;2023-05-11T00:28:07;99086.19;;;12.41;73.84
22753;BME280;11543;43.144;24.684;2023-05-11T00:30:34;99123.22;;;12.47;73.66
22753;BME280;11543;43.144;24.684;2023-05-11T00:33:00;99099.94;;;12.30;73.65
22753;BME280;11543;43.144;24.684;2023-05-11T00:35:26;99115.75;;;12.33;73.71
22753;BME280;11543;43.144;24.684;2023-05-11T00:37:51;99100.88;;;12.21;73.95
22753;BME280;11543;43.144;24.684;2023-05-11T00:40:16;99100.38;;;12.17;74.12
22753;BME280;11543;43.144;24.684;2023-05-11T00:42:42;99091.38;;;12.08;74.10
22753;BME280;11543;43.144;24.684;2023-05-11T00:45:08;99105.81;;;12.07;73.89
22753;BME280;11543;43.144;24.684;2023-05-11T00:47:33;99102.25;;;11.99;73.92
22753;BME280;11543;43.144;24.684;2023-05-11T00:49:59;99119.22;;;11.99;73.66
22753;BME280;11543;43.144;24.684;2023-05-11T00:52:25;99116.16;;;11.94;74.13
22753;BME280;11543;43.144;24.684;2023-05-11T00:54:51;99113.09;;;11.89;74.26
22753;BME280;11543;43.144;24.684;2023-05-11T00:57:16;99099.06;;;11.77;74.47
22753;BME280;11543;43.144;24.684;2023-05-11T00:59:42;99110.66;;;11.78;74.75
22753;BME280;11543;43.144;24.684;2023-05-11T01:02:07;99107.56;;;11.73;74.96
22753;BME280;11543;43.144;24.684;2023-05-11T01:04:33;99111.56;;;11.69;74.55
22753;BME280;11543;43.144;24.684;2023-05-11T01:15:24;99120.63;;;11.68;76.16
22753;BME280;11543;43.144;24.684;2023-05-11T01:18:18;99114.94;;;11.71;76.07
22753;BME280;11543;43.144;24.684;2023-05-11T01:20:45;99117.88;;;11.77;76.14
22753;BME280;11543;43.144;24.684;2023-05-11T01:29:05;99117.63;;;11.71;76.12
22753;BME280;11543;43.144;24.684;2023-05-11T01:31:33;99120.84;;;11.74;76.17
22753;BME280;11543;43.144;24.684;2023-05-11T01:34:12;99125.06;;;11.77;76.14
22753;BME280;11543;43.144;24.684;2023-05-11T01:36:56;99111.56;;;11.69;76.21
22753;BME280;11543;43.144;24.684;2023-05-11T01:39:32;99120.63;;;11.68;76.13
22753;BME280;11543;43.144;24.684;2023-05-11T01:42:06;99118.94;;;11.67;75.70
22753;BME280;11543;43.144;24.684;2023-05-11T01:44:34;99117.56;;;11.63;76.00
22753;BME280;11543;43.144;24.684;2023-05-11T01:47:02;99110.72;;;11.68;76.05
22753;BME280;11543;43.144;24.684;2023-05-11T01:49:32;99119.69;;;11.77;76.07
22753;BME280;11543;43.144;24.684;2023-05-11T01:52:01;99112.03;;;11.82;76.36
22753;BME280;11543;43.144;24.684;2023-05-11T01:54:29;99108.66;;;11.80;75.57
22753;BME280;11543;43.144;24.684;2023-05-11T01:56:56;99120.47;;;11.87;75.40
22753;BME280;11543;43.144;24.684;2023-05-11T01:59:24;99122.09;;;11.80;75.52
22753;BME280;11543;43.144;24.684;2023-05-11T02:01:50;99114.56;;;11.66;75.57
22753;BME280;11543;43.144;24.684;2023-05-11T02:04:17;99109.13;;;11.58;75.19
22753;BME280;11543;43.144;24.684;2023-05-11T02:06:46;99119.72;;;11.59;75.30
22753;BME280;11543;43.144;24.684;2023-05-11T02:09:15;99121.88;;;11.56;75.20
22753;BME280;11543;43.144;24.684;2023-05-11T02:11:43;99124.16;;;11.51;75.21
22753;BME280;11543;43.144;24.684;2023-05-11T02:14:10;99123.09;;;11.43;75.59
22753;BME280;11543;43.144;24.684;2023-05-11T02:16:36;99117.72;;;11.43;75.89
22753;BME280;11543;43.144;24.684;2023-05-11T02:19:03;99114.50;;;11.40;76.28
22753;BME280;11543;43.144;24.684;2023-05-11T02:21:30;99110.97;;;11.39;76.63
22753;BME280;11543;43.144;24.684;2023-05-11T02:23:59;99123.78;;;11.45;76.89
22753;BME280;11543;43.144;24.684;2023-05-11T02:26:25;99115.50;;;11.39;76.84
22753;BME280;11543;43.144;24.684;2023-05-11T02:28:51;99093.41;;;11.27;76.76
22753;BME280;11543;43.144;24.684;2023-05-11T02:31:20;99114.03;;;11.44;77.05
22753;BME280;11543;43.144;24.684;2023-05-11T02:33:48;99119.63;;;11.51;77.44
22753;BME280;11543;43.144;24.684;2023-05-11T02:36:16;99113.13;;;11.54;77.30
22753;BME280;11543;43.144;24.684;2023-05-11T02:38:45;99104.66;;;11.48;77.37
22753;BME280;11543;43.144;24.684;2023-05-11T02:41:13;99101.00;;;11.49;77.63
22753;BME280;11543;43.144;24.684;2023-05-11T02:43:45;99105.97;;;11.62;77.30
22753;BME280;11543;43.144;24.684;2023-05-11T02:46:15;99115.78;;;11.71;76.83
22753;BME280;11543;43.144;24.684;2023-05-11T02:48:45;99120.31;;;11.71;76.86
22753;BME280;11543;43.144;24.684;2023-05-11T02:51:13;99124.22;;;11.76;76.52
22753;BME280;11543;43.144;24.684;2023-05-11T02:53:41;99119.41;;;11.80;76.38
22753;BME280;11543;43.144;24.684;2023-05-11T02:56:08;99110.66;;;11.78;76.40
22753;BME280;11543;43.144;24.684;2023-05-11T02:58:34;99124.78;;;11.80;75.93
22753;BME280;11543;43.144;24.684;2023-05-11T03:00:59;99090.69;;;11.63;76.10
22753;BME280;11543;43.144;24.684;2023-05-11T03:03:26;99082.25;;;11.58;76.44
22753;BME280;11543;43.144;24.684;2023-05-11T03:05:52;99121.09;;;11.81;76.36
22753;BME280;11543;43.144;24.684;2023-05-11T03:08:17;99128.75;;;11.76;76.21
22753;BME280;11543;43.144;24.684;2023-05-11T03:10:44;99119.69;;;11.77;76.20
22753;BME280;11543;43.144;24.684;2023-05-11T03:13:10;99120.00;;;11.74;76.25
22753;BME280;11543;43.144;24.684;2023-05-11T03:15:36;99112.34;;;11.79;76.08
22753;BME280;11543;43.144;24.684;2023-05-11T03:18:04;99122.16;;;11.88;75.87
22753;BME280;11543;43.144;24.684;2023-05-11T03:20:32;99117.84;;;11.95;76.03
22753;BME280;11543;43.144;24.684;2023-05-11T03:23:00;99122.38;;;11.95;75.25
22753;BME280;11543;43.144;24.684;2023-05-11T03:25:27;99127.53;;;11.88;75.34
22753;BME280;11543;43.144;24.684;2023-05-11T03:27:54;99124.69;;;11.90;75.49
22753;BME280;11543;43.144;24.684;2023-05-11T03:30:21;99130.91;;;11.90;75.23
22753;BME280;11543;43.144;24.684;2023-05-11T03:32:48;99135.28;;;11.91;75.15
22753;BME280;11543;43.144;24.684;2023-05-11T03:35:13;99135.66;;;11.96;75.14
22753;BME280;11543;43.144;24.684;2023-05-11T03:37:40;99118.78;;;11.86;74.70
22753;BME280;11543;43.144;24.684;2023-05-11T03:40:09;99130.38;;;11.87;74.90
22753;BME280;11543;43.144;24.684;2023-05-11T03:42:36;99127.84;;;11.85;74.65
22753;BME280;11543;43.144;24.684;2023-05-11T03:45:04;99131.22;;;11.87;74.85
22753;BME280;11543;43.144;24.684;2023-05-11T03:47:32;99132.59;;;11.91;74.94
22753;BME280;11543;43.144;24.684;2023-05-11T03:50:01;99144.09;;;12.01;74.71
22753;BME280;11543;43.144;24.684;2023-05-11T03:52:28;99133.34;;;12.01;74.57
22753;BME280;11543;43.144;24.684;2023-05-11T03:54:54;99138.09;;;12.07;74.34
22753;BME280;11543;43.144;24.684;2023-05-11T03:57:24;99147.47;;;12.03;74.21
22753;BME280;11543;43.144;24.684;2023-05-11T03:59:50;99148.41;;;11.94;74.10
22753;BME280;11543;43.144;24.684;2023-05-11T04:02:16;99130.84;;;11.82;74.10
22753;BME280;11543;43.144;24.684;2023-05-11T04:04:42;99139.50;;;11.76;74.17
22753;BME280;11543;43.144;24.684;2023-05-11T04:07:07;99148.28;;;11.78;74.63
22753;BME280;11543;43.144;24.684;2023-05-11T04:09:33;99144.88;;;11.76;74.56
22753;BME280;11543;43.144;24.684;2023-05-11T04:12:00;99149.41;;;11.75;74.95
22753;BME280;11543;43.144;24.684;2023-05-11T04:14:25;99135.75;;;11.69;75.09
22753;BME280;11543;43.144;24.684;2023-05-11T04:16:51;99143.50;;;11.72;75.32
22753;BME280;11543;43.144;24.684;2023-05-11T04:19:16;99137.44;;;11.70;75.56
22753;BME280;11543;43.144;24.684;2023-05-11T04:21:44;99141.19;;;11.77;75.47
22753;BME280;11543;43.144;24.684;2023-05-11T04:24:10;99133.13;;;11.77;75.59
22753;BME280;11543;43.144;24.684;2023-05-11T04:26:36;99152.09;;;11.93;75.50
22753;BME280;11543;43.144;24.684;2023-05-11T04:29:02;99137.28;;;11.89;75.23
22753;BME280;11543;43.144;24.684;2023-05-11T04:31:29;99138.28;;;11.88;75.25
22753;BME280;11543;43.144;24.684;2023-05-11T04:33:55;99144.50;;;11.89;75.23
22753;BME280;11543;43.144;24.684;2023-05-11T04:36:21;99161.19;;;11.92;74.47
22753;BME280;11543;43.144;24.684;2023-05-11T04:38:47;99178.38;;;11.99;74.53
22753;BME280;11543;43.144;24.684;2023-05-11T04:41:12;99167.25;;;11.94;74.41
22753;BME280;11543;43.144;24.684;2023-05-11T04:43:39;99160.72;;;11.97;74.36
22753;BME280;11543;43.144;24.684;2023-05-11T04:46:04;99158.88;;;11.97;74.65
22753;BME280;11543;43.144;24.684;2023-05-11T04:48:30;99164.47;;;12.04;74.63
22753;BME280;11543;43.144;24.684;2023-05-11T04:50:56;99148.09;;;11.97;74.58
22753;BME280;11543;43.144;24.684;2023-05-11T04:53:22;99164.34;;;12.13;74.39
22753;BME280;11543;43.144;24.684;2023-05-11T04:55:48;99163.22;;;12.16;74.33
22753;BME280;11543;43.144;24.684;2023-05-11T04:58:13;99162.91;;;12.19;74.17
22753;BME280;11543;43.144;24.684;2023-05-11T05:00:39;99160.81;;;12.31;73.61
22753;BME280;11543;43.144;24.684;2023-05-11T05:03:04;99161.22;;;12.44;72.82
22753;BME280;11543;43.144;24.684;2023-05-11T05:05:30;99164.97;;;12.51;71.89
22753;BME280;11543;43.144;24.684;2023-05-11T05:07:55;99166.06;;;12.66;71.94
22753;BME280;11543;43.144;24.684;2023-05-11T05:10:21;99154.66;;;12.72;71.67
22753;BME280;11543;43.144;24.684;2023-05-11T05:12:47;99167.16;;;12.90;71.62
22753;BME280;11543;43.144;24.684;2023-05-11T05:15:13;99159.50;;;13.03;71.32
22753;BME280;11543;43.144;24.684;2023-05-11T05:17:38;99140.44;;;12.96;70.44
22753;BME280;11543;43.144;24.684;2023-05-11T05:20:04;99155.84;;;13.12;69.24
22753;BME280;11543;43.144;24.684;2023-05-11T05:22:30;99172.06;;;13.28;69.30
22753;BME280;11543;43.144;24.684;2023-05-11T05:24:56;99170.09;;;13.38;68.84
22753;BME280;11543;43.144;24.684;2023-05-11T05:27:22;99165.88;;;13.44;68.19
22753;BME280;11543;43.144;24.684;2023-05-11T05:29:47;99143.13;;;13.38;67.02
22753;BME280;11543;43.144;24.684;2023-05-11T05:32:13;99173.50;;;13.57;67.02
22753;BME280;11543;43.144;24.684;2023-05-11T05:34:38;99169.09;;;13.56;66.87
22753;BME280;11543;43.144;24.684;2023-05-11T05:37:04;99159.34;;;13.63;66.52
22753;BME280;11543;43.144;24.684;2023-05-11T05:39:29;99179.06;;;13.80;65.67
22753;BME280;11543;43.144;24.684;2023-05-11T05:41:55;99165.41;;;13.73;65.76
22753;BME280;11543;43.144;24.684;2023-05-11T05:44:20;99182.31;;;13.91;65.36
22753;BME280;11543;43.144;24.684;2023-05-11T05:46:46;99155.31;;;13.83;65.41
22753;BME280;11543;43.144;24.684;2023-05-11T05:49:11;99178.28;;;14.03;65.42
22753;BME280;11543;43.144;24.684;2023-05-11T05:51:37;99162.75;;;14.06;63.31
22753;BME280;11543;43.144;24.684;2023-05-11T05:54:03;99153.31;;;14.01;63.68
22753;BME280;11543;43.144;24.684;2023-05-11T05:56:31;99182.97;;;14.26;62.94
22753;BME280;11543;43.144;24.684;2023-05-11T05:58:59;99181.44;;;14.31;63.28
22753;BME280;11543;43.144;24.684;2023-05-11T06:01:25;99170.50;;;14.25;63.50
22753;BME280;11543;43.144;24.684;2023-05-11T06:03:51;99187.00;;;14.38;62.67
22753;BME280;11543;43.144;24.684;2023-05-11T06:06:17;99168.13;;;14.30;62.43
22753;BME280;11543;43.144;24.684;2023-05-11T06:08:42;99167.09;;;14.31;63.27
22753;BME280;11543;43.144;24.684;2023-05-11T06:11:08;99177.91;;;14.47;63.37
22753;BME280;11543;43.144;24.684;2023-05-11T06:13:33;99179.22;;;14.59;63.62
22753;BME280;11543;43.144;24.684;2023-05-11T06:15:59;99176.69;;;14.66;62.98
22753;BME280;11543;43.144;24.684;2023-05-11T06:18:25;99155.25;;;14.64;61.91
22753;BME280;11543;43.144;24.684;2023-05-11T06:20:50;99176.66;;;14.82;62.20
22753;BME280;11543;43.144;24.684;2023-05-11T06:23:16;99165.69;;;14.84;61.83
22753;BME280;11543;43.144;24.684;2023-05-11T06:25:41;99188.22;;;15.07;59.91
22753;BME280;11543;43.144;24.684;2023-05-11T06:28:07;99181.09;;;15.14;59.82
22753;BME280;11543;43.144;24.684;2023-05-11T06:30:32;99186.47;;;15.22;59.53
22753;BME280;11543;43.144;24.684;2023-05-11T06:32:58;99161.19;;;15.07;60.22
22753;BME280;11543;43.144;24.684;2023-05-11T06:35:24;99179.31;;;15.29;60.11
22753;BME280;11543;43.144;24.684;2023-05-11T06:37:49;99182.28;;;15.43;59.14
22753;BME280;11543;43.144;24.684;2023-05-11T06:40:15;99164.44;;;15.34;59.23
22753;BME280;11543;43.144;24.684;2023-05-11T06:42:41;99167.09;;;15.42;59.07
22753;BME280;11543;43.144;24.684;2023-05-11T06:45:07;99180.53;;;15.58;58.93
22753;BME280;11543;43.144;24.684;2023-05-11T06:47:33;99174.25;;;15.66;59.18
22753;BME280;11543;43.144;24.684;2023-05-11T06:49:59;99166.94;;;15.74;57.95
22753;BME280;11543;43.144;24.684;2023-05-11T06:52:24;99179.00;;;15.86;57.61
22753;BME280;11543;43.144;24.684;2023-05-11T06:54:50;99171.91;;;15.85;57.46
22753;BME280;11543;43.144;24.684;2023-05-11T06:57:15;99164.34;;;15.81;57.84
22753;BME280;11543;43.144;24.684;2023-05-11T06:59:41;99176.91;;;15.97;56.89
22753;BME280;11543;43.144;24.684;2023-05-11T07:02:06;99180.19;;;16.07;56.86
22753;BME280;11543;43.144;24.684;2023-05-11T07:04:32;99161.91;;;16.09;57.16
22753;BME280;11543;43.144;24.684;2023-05-11T07:06:57;99160.81;;;16.18;57.06
22753;BME280;11543;43.144;24.684;2023-05-11T07:09:23;99176.06;;;16.34;57.38
22753;BME280;11543;43.144;24.684;2023-05-11T07:11:49;99151.50;;;16.35;57.26
22753;BME280;11543;43.144;24.684;2023-05-11T07:14:16;99170.25;;;16.60;56.94
22753;BME280;11543;43.144;24.684;2023-05-11T07:16:41;99160.38;;;16.67;55.47
22753;BME280;11543;43.144;24.684;2023-05-11T07:19:07;99167.28;;;16.84;55.09
22753;BME280;11543;43.144;24.684;2023-05-11T07:21:34;99152.34;;;16.88;54.64
22753;BME280;11543;43.144;24.684;2023-05-11T07:24:00;99156.81;;;17.10;52.72
22753;BME280;11543;43.144;24.684;2023-05-11T07:26:25;99140.06;;;17.07;54.41
22753;BME280;11543;43.144;24.684;2023-05-11T07:28:51;99149.03;;;17.22;54.00
22753;BME280;11543;43.144;24.684;2023-05-11T07:31:16;99168.53;;;17.47;53.75
22753;BME280;11543;43.144;24.684;2023-05-11T07:33:42;99160.66;;;17.52;53.96
22753;BME280;11543;43.144;24.684;2023-05-11T07:36:08;99152.41;;;17.60;53.05
22753;BME280;11543;43.144;24.684;2023-05-11T07:38:33;99143.31;;;17.68;52.45
22753;BME280;11543;43.144;24.684;2023-05-11T07:40:59;99161.88;;;17.86;51.03
22753;BME280;11543;43.144;24.684;2023-05-11T07:43:24;99175.56;;;17.99;51.43
22753;BME280;11543;43.144;24.684;2023-05-11T07:45:51;99163.28;;;18.03;49.98
22753;BME280;11543;43.144;24.684;2023-05-11T07:48:16;99165.88;;;18.11;49.66
22753;BME280;11543;43.144;24.684;2023-05-11T07:50:42;99158.50;;;18.26;51.60
22753;BME280;11543;43.144;24.684;2023-05-11T07:53:08;99145.97;;;18.25;50.69
22753;BME280;11543;43.144;24.684;2023-05-11T07:55:34;99167.63;;;18.46;51.10
22753;BME280;11543;43.144;24.684;2023-05-11T07:57:59;99163.34;;;18.59;49.38
22753;BME280;11543;43.144;24.684;2023-05-11T08:00:25;99159.69;;;18.73;49.34
22753;BME280;11543;43.144;24.684;2023-05-11T08:02:51;99161.00;;;18.84;49.19
22753;BME280;11543;43.144;24.684;2023-05-11T08:05:17;99173.31;;;19.07;49.07
22753;BME280;11543;43.144;24.684;2023-05-11T08:07:43;99141.31;;;19.09;47.45
22753;BME280;11543;43.144;24.684;2023-05-11T08:10:09;99166.97;;;19.41;47.02
22753;BME280;11543;43.144;24.684;2023-05-11T08:12:35;99164.09;;;19.56;47.45
22753;BME280;11543;43.144;24.684;2023-05-11T08:15:02;99154.91;;;19.57;46.63
22753;BME280;11543;43.144;24.684;2023-05-11T08:17:28;99167.94;;;19.82;46.91
22753;BME280;11543;43.144;24.684;2023-05-11T08:19:54;99157.88;;;19.89;46.83
22753;BME280;11543;43.144;24.684;2023-05-11T08:22:20;99151.44;;;20.03;47.22
22753;BME280;11543;43.144;24.684;2023-05-11T08:24:46;99152.69;;;20.20;45.57
22753;BME280;11543;43.144;24.684;2023-05-11T08:27:11;99133.00;;;20.25;45.48
22753;BME280;11543;43.144;24.684;2023-05-11T08:29:38;99158.59;;;20.50;43.93
22753;BME280;11543;43.144;24.684;2023-05-11T08:32:04;99149.38;;;20.45;44.08
22753;BME280;11543;43.144;24.684;2023-05-11T08:34:29;99151.44;;;20.56;45.31
22753;BME280;11543;43.144;24.684;2023-05-11T08:36:54;99154.38;;;20.61;44.76
22753;BME280;11543;43.144;24.684;2023-05-11T08:39:21;99137.63;;;20.51;43.97
22753;BME280;11543;43.144;24.684;2023-05-11T08:41:48;99128.78;;;20.62;45.31
22753;BME280;11543;43.144;24.684;2023-05-11T08:44:15;99147.66;;;20.83;46.64
22753;BME280;11543;43.144;24.684;2023-05-11T08:46:44;99140.66;;;21.01;45.63
22753;BME280;11543;43.144;24.684;2023-05-11T08:49:11;99132.03;;;21.10;43.75
22753;BME280;11543;43.144;24.684;2023-05-11T08:51:38;99121.53;;;21.14;43.98
22753;BME280;11543;43.144;24.684;2023-05-11T08:54:04;99138.06;;;21.32;44.03
22753;BME280;11543;43.144;24.684;2023-05-11T08:56:33;99146.09;;;21.58;42.90
22753;BME280;11543;43.144;24.684;2023-05-11T08:58:59;99143.53;;;21.70;41.68
22753;BME280;11543;43.144;24.684;2023-05-11T09:01:27;99136.38;;;21.76;43.05
22753;BME280;11543;43.144;24.684;2023-05-11T09:03:53;99136.44;;;21.94;41.18
22753;BME280;11543;43.144;24.684;2023-05-11T09:06:20;99123.28;;;21.84;41.49
22753;BME280;11543;43.144;24.684;2023-05-11T09:08:47;99118.66;;;21.85;42.80
22753;BME280;11543;43.144;24.684;2023-05-11T09:11:13;99113.97;;;21.92;42.14
22753;BME280;11543;43.144;24.684;2023-05-11T09:13:39;99136.56;;;22.12;41.72
22753;BME280;11543;43.144;24.684;2023-05-11T09:16:05;99116.03;;;22.03;41.44
22753;BME280;11543;43.144;24.684;2023-05-11T09:18:31;99113.63;;;22.13;43.80
22753;BME280;11543;43.144;24.684;2023-05-11T09:20:56;99113.22;;;22.10;41.71
22753;BME280;11543;43.144;24.684;2023-05-11T09:23:24;99115.06;;;22.16;42.12
22753;BME280;11543;43.144;24.684;2023-05-11T09:25:53;99104.97;;;22.16;41.79
22753;BME280;11543;43.144;24.684;2023-05-11T09:28:30;99122.88;;;22.37;41.41
22753;BME280;11543;43.144;24.684;2023-05-11T09:30:55;99111.03;;;22.43;40.66
22753;BME280;11543;43.144;24.684;2023-05-11T09:33:23;99115.38;;;22.51;39.75
22753;BME280;11543;43.144;24.684;2023-05-11T09:35:49;99095.91;;;22.41;40.45
22753;BME280;11543;43.144;24.684;2023-05-11T09:38:15;99102.78;;;22.50;39.99
22753;BME280;11543;43.144;24.684;2023-05-11T09:40:50;99111.19;;;22.48;40.96
22753;BME280;11543;43.144;24.684;2023-05-11T09:43:19;99090.44;;;22.41;39.23
22753;BME280;11543;43.144;24.684;2023-05-11T09:46:01;99095.31;;;22.39;39.21
22753;BME280;11543;43.144;24.684;2023-05-11T09:48:31;99092.97;;;22.42;39.38
22753;BME280;11543;43.144;24.684;2023-05-11T09:51:03;99079.69;;;22.46;39.03
22753;BME280;11543;43.144;24.684;2023-05-11T09:53:43;99093.41;;;22.64;37.68
22753;BME280;11543;43.144;24.684;2023-05-11T09:56:11;99085.94;;;22.71;39.58
22753;BME280;11543;43.144;24.684;2023-05-11T09:58:55;99077.44;;;22.79;39.07
22753;BME280;11543;43.144;24.684;2023-05-11T10:01:32;99084.91;;;22.91;38.44
22753;BME280;11543;43.144;24.684;2023-05-11T10:04:00;99075.34;;;23.00;38.82
22753;BME280;11543;43.144;24.684;2023-05-11T10:06:26;99060.88;;;23.11;38.17
22753;BME280;11543;43.144;24.684;2023-05-11T10:08:53;99072.25;;;23.26;37.15
22753;BME280;11543;43.144;24.684;2023-05-11T10:11:21;99066.78;;;23.26;36.95
22753;BME280;11543;43.144;24.684;2023-05-11T10:13:47;99056.56;;;23.33;37.63
22753;BME280;11543;43.144;24.684;2023-05-11T10:16:14;99046.81;;;23.37;35.85
22753;BME280;11543;43.144;24.684;2023-05-11T10:18:43;99043.00;;;23.38;36.10
22753;BME280;11543;43.144;24.684;2023-05-11T10:21:10;99039.06;;;23.34;35.94
22753;BME280;11543;43.144;24.684;2023-05-11T10:23:36;99045.59;;;23.33;37.14
22753;BME280;11543;43.144;24.684;2023-05-11T10:26:03;99047.84;;;23.25;35.81
22753;BME280;11543;43.144;24.684;2023-05-11T10:28:29;99040.66;;;23.12;35.94
22753;BME280;11543;43.144;24.684;2023-05-11T10:30:55;99048.03;;;23.11;35.76
22753;BME280;11543;43.144;24.684;2023-05-11T10:33:22;99049.31;;;23.09;36.80
22753;BME280;11543;43.144;24.684;2023-05-11T10:35:49;99044.53;;;23.04;36.01
22753;BME280;11543;43.144;24.684;2023-05-11T10:38:16;99044.22;;;23.12;36.15
22753;BME280;11543;43.144;24.684;2023-05-11T10:40:42;99038.19;;;23.22;35.72
22753;BME280;11543;43.144;24.684;2023-05-11T10:49:19;99028.97;;;23.65;35.63
22753;BME280;11543;43.144;24.684;2023-05-11T10:54:31;99015.78;;;23.85;34.28
22753;BME280;11543;43.144;24.684;2023-05-11T11:02:10;99016.25;;;24.05;34.34
22753;BME280;11543;43.144;24.684;2023-05-11T11:04:47;99011.03;;;24.15;35.63
22753;BME280;11543;43.144;24.684;2023-05-11T11:07:14;99012.56;;;24.23;35.12
22753;BME280;11543;43.144;24.684;2023-05-11T11:10:01;99018.00;;;24.30;33.87
22753;BME280;11543;43.144;24.684;2023-05-11T11:12:31;99007.47;;;24.27;33.15
22753;BME280;11543;43.144;24.684;2023-05-11T11:15:06;99006.53;;;24.33;33.05
22753;BME280;11543;43.144;24.684;2023-05-11T11:17:33;98994.81;;;24.26;34.65
22753;BME280;11543;43.144;24.684;2023-05-11T11:20:03;99003.78;;;24.33;33.79
22753;BME280;11543;43.144;24.684;2023-05-11T11:30:35;98997.41;;;24.67;34.00
22753;BME280;11543;43.144;24.684;2023-05-11T11:38:19;98983.03;;;24.89;32.92
22753;BME280;11543;43.144;24.684;2023-05-11T11:40:47;98983.50;;;24.86;33.20
22753;BME280;11543;43.144;24.684;2023-05-11T11:45:55;98982.53;;;24.92;32.60
22753;BME280;11543;43.144;24.684;2023-05-11T11:48:35;98978.72;;;24.93;32.79
22753;BME280;11543;43.144;24.684;2023-05-11T11:51:05;98990.75;;;24.92;32.81
22753;BME280;11543;43.144;24.684;2023-05-11T11:56:06;98974.69;;;24.84;33.19
22753;BME280;11543;43.144;24.684;2023-05-11T12:01:08;98987.53;;;24.95;32.63
22753;BME280;11543;43.144;24.684;2023-05-11T12:03:35;98977.69;;;24.82;33.02
22753;BME280;11543;43.144;24.684;2023-05-11T12:06:02;98975.03;;;24.87;33.25
22753;BME280;11543;43.144;24.684;2023-05-11T12:08:29;98974.19;;;24.87;33.22
22753;BME280;11543;43.144;24.684;2023-05-11T12:10:58;98988.75;;;24.99;33.50
22753;BME280;11543;43.144;24.684;2023-05-11T12:13:24;98987.06;;;24.98;33.49
22753;BME280;11543;43.144;24.684;2023-05-11T12:16:16;98978.94;;;25.03;32.58
22753;BME280;11543;43.144;24.684;2023-05-11T12:19:03;98971.56;;;24.92;33.43
22753;BME280;11543;43.144;24.684;2023-05-11T12:21:30;98959.41;;;24.88;33.74
22753;BME280;11543;43.144;24.684;2023-05-11T12:24:03;98973.22;;;24.93;33.51
22753;BME280;11543;43.144;24.684;2023-05-11T12:26:31;98969.88;;;24.91;34.18
22753;BME280;11543;43.144;24.684;2023-05-11T12:31:41;98965.56;;;24.95;34.16
22753;BME280;11543;43.144;24.684;2023-05-11T12:34:16;98960.56;;;24.92;33.79
22753;BME280;11543;43.144;24.684;2023-05-11T12:36:46;98952.59;;;24.90;33.56
22753;BME280;11543;43.144;24.684;2023-05-11T12:39:22;98950.78;;;24.96;33.73
22753;BME280;11543;43.144;24.684;2023-05-11T12:41:49;98953.63;;;25.01;34.13
22753;BME280;11543;43.144;24.684;2023-05-11T12:44:16;98938.13;;;24.95;34.10
22753;BME280;11543;43.144;24.684;2023-05-11T12:46:43;98955.91;;;25.04;33.51
22753;BME280;11543;43.144;24.684;2023-05-11T12:49:10;98946.47;;;25.00;33.77
22753;BME280;11543;43.144;24.684;2023-05-11T12:54:11;98950.00;;;25.12;33.97
22753;BME280;11543;43.144;24.684;2023-05-11T12:56:48;98935.09;;;25.08;34.12
22753;BME280;11543;43.144;24.684;2023-05-11T13:00:04;98946.72;;;25.27;32.87
22753;BME280;11543;43.144;24.684;2023-05-11T13:02:29;98931.09;;;25.27;33.35
22753;BME280;11543;43.144;24.684;2023-05-11T13:04:55;98934.59;;;25.39;32.48
22753;BME280;11543;43.144;24.684;2023-05-11T13:07:26;98933.59;;;25.46;32.78
22753;BME280;11543;43.144;24.684;2023-05-11T13:09:59;98919.94;;;25.51;33.16
22753;BME280;11543;43.144;24.684;2023-05-11T13:12:25;98935.50;;;25.62;32.84
22753;BME280;11543;43.144;24.684;2023-05-11T13:15:18;98932.25;;;25.65;33.04
22753;BME280;11543;43.144;24.684;2023-05-11T13:17:44;98930.25;;;25.60;33.25
22753;BME280;11543;43.144;24.684;2023-05-11T13:20:21;98931.94;;;25.61;33.50
22753;BME280;11543;43.144;24.684;2023-05-11T13:22:49;98933.25;;;25.59;33.61
22753;BME280;11543;43.144;24.684;2023-05-11T13:25:17;98928.94;;;25.63;33.72
22753;BME280;11543;43.144;24.684;2023-05-11T13:27:43;98918.44;;;25.60;32.88
22753;BME280;11543;43.144;24.684;2023-05-11T13:30:09;98918.53;;;25.65;33.32
22753;BME280;11543;43.144;24.684;2023-05-11T13:32:36;98899.72;;;25.57;33.13
22753;BME280;11543;43.144;24.684;2023-05-11T13:35:02;98904.28;;;25.51;33.22
22753;BME280;11543;43.144;24.684;2023-05-11T13:37:28;98901.13;;;25.43;32.95
22753;BME280;11543;43.144;24.684;2023-05-11T13:39:53;98904.47;;;25.45;33.03
22753;BME280;11543;43.144;24.684;2023-05-11T13:42:19;98911.94;;;25.49;33.11
22753;BME280;11543;43.144;24.684;2023-05-11T13:44:45;98908.28;;;25.44;32.99
22753;BME280;11543;43.144;24.684;2023-05-11T13:47:10;98903.13;;;25.30;32.56